createdAt,value
2022-09-26T00:02:32.213Z,99582.02
2022-09-26T00:07:34.974Z,99573.73
2022-09-26T00:12:37.636Z,99572.02
2022-09-26T00:17:40.305Z,99568.33
2022-09-26T00:22:43.029Z,99565.77
2022-09-26T00:27:45.691Z,99563.55
2022-09-26T00:32:48.360Z,99562.28
2022-09-26T00:37:51.060Z,99556.50
2022-09-26T00:42:58.555Z,99552.94
2022-09-26T00:48:05.693Z,99557.07
2022-09-26T00:53:19.183Z,99558.08
2022-09-26T00:58:41.181Z,99556.81
2022-09-26T01:03:45.305Z,99554.21
2022-09-26T01:08:58.977Z,99551.59
2022-09-26T01:14:02.233Z,99545.61
2022-09-26T01:19:18.886Z,99546.26
2022-09-26T01:24:48.713Z,99542.81
2022-09-26T01:30:28.146Z,99539.89
2022-09-26T01:35:43.792Z,99536.69
2022-09-26T01:40:58.978Z,99524.38
2022-09-26T01:46:20.329Z,99522.52
2022-09-26T01:51:36.338Z,99519.58
2022-09-26T01:56:40.604Z,99509.48
2022-09-26T02:01:46.496Z,99502.83
2022-09-26T02:07:00.702Z,99498.59
2022-09-26T02:12:09.571Z,99497.95
2022-09-26T02:17:22.893Z,99490.73
2022-09-26T02:22:34.096Z,99495.95
2022-09-26T02:27:36.800Z,99494.73
2022-09-26T02:32:40.553Z,99492.58
2022-09-26T02:37:44.164Z,99489.88
2022-09-26T02:43:26.605Z,99493.00
2022-09-26T02:48:36.040Z,99487.00
2022-09-26T02:54:21.542Z,99481.12
2022-09-26T02:59:53.469Z,99478.23
2022-09-26T03:05:14.609Z,99477.70
2022-09-26T03:10:18.281Z,99471.42
2022-09-26T03:15:22.371Z,99472.98
2022-09-26T03:20:26.167Z,99464.89
2022-09-26T03:25:29.805Z,99457.88
2022-09-26T03:30:33.004Z,99456.09
2022-09-26T03:35:36.208Z,99456.52
2022-09-26T03:40:41.226Z,99454.95
2022-09-26T03:45:43.995Z,99457.29
2022-09-26T03:50:46.890Z,99450.98
2022-09-26T03:55:49.896Z,99447.11
2022-09-26T04:00:52.908Z,99442.80
2022-09-26T04:05:55.676Z,99447.12
2022-09-26T04:11:03.527Z,99447.24
2022-09-26T04:16:07.897Z,99436.11
2022-09-26T04:21:14.202Z,99432.12
2022-09-26T04:26:23.248Z,99426.98
2022-09-26T04:31:27.828Z,99426.81
2022-09-26T04:36:31.586Z,99425.67
2022-09-26T04:41:34.461Z,99424.34
2022-09-26T04:46:37.231Z,99428.14
2022-09-26T04:51:40.101Z,99428.00
2022-09-26T04:56:42.882Z,99425.64
2022-09-26T05:01:45.887Z,99430.48
2022-09-26T05:06:48.558Z,99425.11
2022-09-26T05:11:51.342Z,99415.23
2022-09-26T05:16:54.075Z,99413.05
2022-09-26T05:21:56.816Z,99409.54
2022-09-26T05:26:59.847Z,99407.30
2022-09-26T05:32:04.597Z,99407.91
2022-09-26T05:37:24.160Z,99408.92
2022-09-26T05:42:28.582Z,99405.36
2022-09-26T05:47:36.215Z,99394.16
2022-09-26T05:52:39.517Z,99392.22
2022-09-26T05:58:00.061Z,99398.42
2022-09-26T06:03:05.562Z,99399.77
2022-09-26T06:08:10.090Z,99400.54
2022-09-26T06:13:15.473Z,99394.19
2022-09-26T06:18:18.382Z,99396.67
2022-09-26T06:23:21.132Z,99390.20
2022-09-26T06:28:28.373Z,99389.71
2022-09-26T06:33:33.525Z,99386.34
2022-09-26T06:38:37.468Z,99381.30
2022-09-26T06:43:40.244Z,99383.17
2022-09-26T06:48:47.825Z,99379.27
2022-09-26T06:53:51.119Z,99370.95
2022-09-26T07:05:05.669Z,99369.31
2022-09-26T07:10:08.876Z,99367.33
2022-09-26T07:15:16.800Z,99361.21
2022-09-26T07:20:20.812Z,99360.52
2022-09-26T07:25:23.835Z,99350.33
2022-09-26T07:30:28.228Z,99351.20
2022-09-26T07:35:33.112Z,99350.77
2022-09-26T07:40:35.930Z,99346.80
2022-09-26T07:45:57.514Z,99344.27
2022-09-26T07:51:04.604Z,99344.09
2022-09-26T07:56:11.511Z,99344.81
2022-09-26T08:01:16.527Z,99349.46
2022-09-26T08:06:20.886Z,99348.71
2022-09-26T08:11:24.557Z,99353.39
2022-09-26T08:16:27.425Z,99359.05
2022-09-26T08:21:30.437Z,99357.04
2022-09-26T08:26:43.898Z,99349.60
2022-09-26T08:31:48.262Z,99350.85
2022-09-26T08:36:53.944Z,99354.45
2022-09-26T08:41:56.855Z,99355.94
2022-09-26T08:47:23.657Z,99354.77
2022-09-26T08:52:39.655Z,99350.24
2022-09-26T08:57:56.810Z,99352.13
2022-09-26T09:03:18.641Z,99348.54
2022-09-26T09:08:33.439Z,99348.61
2022-09-26T09:14:01.837Z,99347.09
2022-09-26T09:19:29.071Z,99346.23
2022-09-26T09:24:54.921Z,99335.16
2022-09-26T09:30:29.812Z,99327.48
2022-09-26T09:35:44.183Z,99324.02
2022-09-26T09:41:11.090Z,99315.92
2022-09-26T09:46:33.161Z,99306.91
2022-09-26T09:52:06.563Z,99310.73
2022-09-26T09:57:49.447Z,99302.25
2022-09-26T10:03:48.080Z,99302.58
2022-09-26T10:08:52.455Z,99307.11
2022-09-26T10:14:00.092Z,99306.83
2022-09-26T10:19:08.989Z,99311.33
2022-09-26T10:24:40.979Z,99308.24
2022-09-26T10:29:45.045Z,99310.56
2022-09-26T10:35:24.297Z,99306.19
2022-09-26T10:40:48.110Z,99307.39
2022-09-26T10:45:56.048Z,99296.38
2022-09-26T10:51:01.962Z,99289.66
2022-09-26T10:56:11.506Z,99287.17
2022-09-26T11:01:27.991Z,99283.41
2022-09-26T11:06:48.341Z,99283.29
2022-09-26T11:11:57.877Z,99286.48
2022-09-26T11:17:04.986Z,99277.17
2022-09-26T11:22:22.277Z,99273.67
2022-09-26T11:27:31.659Z,99274.33
2022-09-26T11:32:41.337Z,99270.92
2022-09-26T11:38:05.828Z,99275.64
2022-09-26T11:43:39.370Z,99265.86
2022-09-26T11:48:50.062Z,99273.09
2022-09-26T11:54:11.763Z,99269.11
2022-09-26T11:59:32.983Z,99265.31
2022-09-26T12:05:14.789Z,99265.17
2022-09-26T12:11:00.445Z,99260.79
2022-09-26T12:16:05.031Z,99253.25
2022-09-26T12:21:21.937Z,99249.29
2022-09-26T12:26:51.852Z,99250.00
2022-09-26T12:32:27.200Z,99244.10
2022-09-26T12:38:14.799Z,99236.38
2022-09-26T12:43:31.787Z,99231.02
2022-09-26T12:49:06.939Z,99224.27
2022-09-26T12:54:33.222Z,99228.13
2022-09-26T12:59:54.598Z,99229.53
2022-09-26T13:05:28.199Z,99230.38
2022-09-26T13:10:50.455Z,99221.91
2022-09-26T13:16:13.340Z,99226.08
2022-09-26T13:21:21.263Z,99228.73
2022-09-26T13:26:29.809Z,99222.91
2022-09-26T13:31:59.974Z,99223.31
2022-09-26T13:37:05.168Z,99218.58
2022-09-26T13:42:36.452Z,99213.63
2022-09-26T13:47:49.923Z,99208.64
2022-09-26T13:53:28.893Z,99204.80
2022-09-26T13:58:39.736Z,99203.55
2022-09-26T14:03:43.189Z,99198.60
2022-09-26T14:09:18.988Z,99198.97
2022-09-26T14:14:26.487Z,99195.59
2022-09-26T14:19:39.897Z,99192.33
2022-09-26T14:24:48.406Z,99186.51
2022-09-26T14:29:58.700Z,99189.36
2022-09-26T14:35:05.371Z,99186.52
2022-09-26T14:40:14.311Z,99178.02
2022-09-26T14:45:16.977Z,99171.83
2022-09-26T14:50:26.216Z,99174.05
2022-09-26T14:55:31.333Z,99174.58
2022-09-26T15:00:40.748Z,99167.57
2022-09-26T15:05:45.384Z,99166.63
2022-09-26T15:10:49.176Z,99163.30
2022-09-26T15:15:58.404Z,99160.58
2022-09-26T15:21:12.800Z,99162.66
2022-09-26T15:26:22.165Z,99161.71
2022-09-26T15:31:25.916Z,99164.92
2022-09-26T15:36:31.787Z,99163.32
2022-09-26T15:41:53.296Z,99162.42
2022-09-26T15:46:58.376Z,99163.21
2022-09-26T15:52:01.602Z,99164.14
2022-09-26T15:57:08.149Z,99163.61
2022-09-26T16:02:29.110Z,99166.55
2022-09-26T16:07:31.897Z,99165.14
2022-09-26T16:12:41.932Z,99163.13
2022-09-26T16:17:53.505Z,99163.83
2022-09-26T16:23:05.608Z,99162.09
2022-09-26T16:28:10.419Z,99162.13
2022-09-26T16:33:16.171Z,99158.61
2022-09-26T16:38:32.272Z,99160.13
2022-09-26T16:43:36.238Z,99155.54
2022-09-26T16:48:52.347Z,99155.02
2022-09-26T16:54:16.077Z,99161.59
2022-09-26T16:59:23.378Z,99161.23
2022-09-26T17:04:32.599Z,99163.33
2022-09-26T17:09:35.480Z,99161.88
2022-09-26T17:14:41.381Z,99161.58
2022-09-26T17:19:47.661Z,99161.39
2022-09-26T17:24:52.067Z,99161.17
2022-09-26T17:30:05.138Z,99161.19
2022-09-26T17:35:14.587Z,99159.96
2022-09-26T17:40:30.806Z,99155.60
2022-09-26T17:45:35.279Z,99153.05
2022-09-26T17:50:38.761Z,99152.23
2022-09-26T17:55:41.528Z,99153.09
2022-09-26T18:00:47.747Z,99154.06
2022-09-26T18:05:50.889Z,99155.58
2022-09-26T18:10:57.844Z,99156.10
2022-09-26T18:16:01.341Z,99157.01
2022-09-26T18:21:04.282Z,99156.05
2022-09-26T18:26:10.404Z,99147.49
2022-09-26T18:31:13.283Z,99145.27
2022-09-26T18:36:16.030Z,99140.76
2022-09-26T18:41:22.149Z,99143.75
2022-09-26T18:46:25.161Z,99144.23
2022-09-26T18:51:28.584Z,99146.18
2022-09-26T18:56:50.824Z,99144.29
2022-09-26T19:01:54.272Z,99148.34
2022-09-26T19:07:21.867Z,99146.09
2022-09-26T19:12:24.843Z,99146.26
2022-09-26T19:17:27.518Z,99147.38
2022-09-26T19:22:31.350Z,99142.73
2022-09-26T19:27:52.073Z,99147.56
2022-09-26T19:32:56.850Z,99138.20
2022-09-26T19:38:01.060Z,99131.42
2022-09-26T19:43:05.815Z,99132.77
2022-09-26T19:48:14.721Z,99133.42
2022-09-26T19:53:20.784Z,99132.18
2022-09-26T19:58:28.044Z,99136.15
2022-09-26T20:03:40.462Z,99141.97
2022-09-26T20:08:43.556Z,99139.94
2022-09-26T20:14:04.892Z,99139.34
2022-09-26T20:19:15.386Z,99130.95
2022-09-26T20:24:19.026Z,99130.65
2022-09-26T20:29:22.367Z,99123.85
2022-09-26T20:34:26.995Z,99121.13
2022-09-26T20:39:29.826Z,99121.81
2022-09-26T20:44:34.652Z,99130.35
2022-09-26T20:49:46.557Z,99136.14
2022-09-26T20:54:49.837Z,99140.35
2022-09-26T20:59:52.689Z,99137.87
2022-09-26T21:04:57.188Z,99136.20
2022-09-26T21:09:59.909Z,99132.23
2022-09-26T21:15:02.571Z,99128.73
2022-09-26T21:20:05.848Z,99131.02
2022-09-26T21:25:19.898Z,99125.61
2022-09-26T21:30:22.764Z,99122.91
2022-09-26T21:35:31.151Z,99111.89
2022-09-26T21:40:38.922Z,99113.54
2022-09-26T21:45:46.125Z,99109.19
2022-09-26T21:50:58.227Z,99103.21
2022-09-26T21:56:07.813Z,99102.63
2022-09-26T22:01:10.723Z,99095.79
2022-09-26T22:06:13.503Z,99103.30
2022-09-26T22:11:16.459Z,99095.09
2022-09-26T22:16:19.206Z,99089.40
2022-09-26T22:21:21.945Z,99084.67
2022-09-26T22:26:24.671Z,99076.83
2022-09-26T22:31:27.925Z,99080.25
2022-09-26T22:36:32.731Z,99065.86
2022-09-26T22:41:35.406Z,99057.90
2022-09-26T22:46:38.576Z,99051.73
2022-09-26T22:51:43.315Z,99052.23
2022-09-26T22:56:46.119Z,99051.66
2022-09-26T23:01:51.781Z,99049.86
2022-09-26T23:06:54.537Z,99049.95
2022-09-26T23:11:57.235Z,99042.50
2022-09-26T23:17:00.063Z,99036.44
2022-09-26T23:22:03.114Z,99029.34
2022-09-26T23:27:05.853Z,99027.58
2022-09-26T23:32:08.640Z,99025.29
2022-09-26T23:37:11.363Z,99021.13
2022-09-26T23:42:14.150Z,99016.17
2022-09-26T23:47:16.852Z,99011.15
2022-09-26T23:52:19.640Z,99014.40
2022-09-26T23:57:23.571Z,99026.52
